Time;durP1;ratioP1;P1;durP2;ratioP2;P2;SDS_P1;SDS_P2;PMS_P1;PMS_P2;Temp;Humidity;BMP_temperature;BMP_pressure;BME280_temperature;BME280_humidity;BME280_pressure;Samples;Min_cycle;Max_cycle;Signal;HPM_P1;HPM_P2
2023/01/24 06:47:52;;;;;;;8.20;5.70;;;1.70;99.90;;;;;;5111105;27;20614;-77
2023/01/24 06:53:45;;;;;;;7.40;6.03;;;1.70;99.90;;;;;;5111286;28;20167;-75
2023/01/24 06:56:11;;;;;;;7.00;6.27;;;1.70;99.90;;;;;;5107004;28;20287;-75
2023/01/24 06:58:37;;;;;;;7.27;5.87;;;1.70;99.90;;;;;;5109934;28;20318;-76
2023/01/24 07:01:02;;;;;;;7.30;6.37;;;1.80;99.90;;;;;;5109933;28;20780;-75
2023/01/24 07:03:28;;;;;;;8.40;7.17;;;1.80;99.90;;;;;;5110983;28;20271;-74
2023/01/24 07:05:54;;;;;;;9.17;6.20;;;1.70;99.90;;;;;;5109628;28;20212;-74
2023/01/24 07:08:20;;;;;;;7.33;6.30;;;1.70;99.90;;;;;;5109951;28;20178;-74
2023/01/24 07:10:46;;;;;;;13.87;9.97;;;1.70;99.90;;;;;;5110094;28;20173;-74
2023/01/24 07:13:11;;;;;;;9.43;7.50;;;1.70;99.90;;;;;;5109557;28;20169;-74
2023/01/24 07:15:37;;;;;;;10.40;8.63;;;1.70;99.90;;;;;;5110060;28;20199;-74
2023/01/24 07:18:11;;;;;;;8.03;6.73;;;1.80;99.90;;;;;;5109805;28;20180;-74
2023/01/24 07:20:37;;;;;;;8.13;6.43;;;1.80;99.90;;;;;;5109806;28;20198;-75
2023/01/24 07:23:03;;;;;;;9.90;8.03;;;1.90;99.90;;;;;;5109752;28;20639;-75
2023/01/24 07:25:30;;;;;;;11.57;8.87;;;1.80;99.90;;;;;;5109525;28;20226;-75
2023/01/24 07:27:56;;;;;;;31.13;23.37;;;1.80;99.90;;;;;;5109267;28;20177;-75
2023/01/24 07:30:22;;;;;;;10.77;8.50;;;1.80;99.90;;;;;;5111355;28;20251;-75
2023/01/24 07:32:47;;;;;;;9.53;8.40;;;1.80;99.90;;;;;;5111294;28;20659;-75
2023/01/24 07:35:13;;;;;;;13.07;11.50;;;1.90;99.90;;;;;;5110390;28;20216;-75
2023/01/24 07:37:39;;;;;;;9.30;8.40;;;1.90;99.90;;;;;;5109523;28;20701;-75
2023/01/24 07:40:05;;;;;;;16.27;13.50;;;1.80;99.90;;;;;;5109187;28;20682;-75
2023/01/24 07:42:30;;;;;;;8.27;7.20;;;1.80;99.90;;;;;;5110351;28;20172;-75
2023/01/24 07:44:56;;;;;;;7.60;6.83;;;1.80;99.90;;;;;;5109029;28;20742;-75
2023/01/24 07:47:23;;;;;;;11.63;10.43;;;1.80;99.90;;;;;;5109355;28;20271;-75
2023/01/24 07:49:48;;;;;;;17.07;13.87;;;1.80;99.90;;;;;;5110519;28;20168;-75
2023/01/24 07:52:14;;;;;;;9.00;7.63;;;1.90;99.90;;;;;;5110496;28;20522;-75
2023/01/24 07:54:39;;;;;;;10.47;9.20;;;1.90;99.90;;;;;;5110368;28;20188;-75
2023/01/24 07:57:07;;;;;;;9.00;7.87;;;1.90;99.90;;;;;;5107691;28;20267;-75
2023/01/24 07:59:33;;;;;;;9.83;8.47;;;1.90;99.90;;;;;;5094828;28;20200;-75
2023/01/24 08:01:58;;;;;;;9.27;7.90;;;2.00;99.90;;;;;;5095121;28;20215;-75
2023/01/24 08:04:24;;;;;;;8.40;7.50;;;2.00;99.90;;;;;;5095063;28;20214;-75
2023/01/24 08:09:34;;;;;;;11.20;8.50;;;2.20;99.90;;;;;;5096541;28;20249;-75
2023/01/24 08:11:59;;;;;;;7.50;6.53;;;2.10;99.90;;;;;;5096748;28;20205;-75
2023/01/24 08:14:25;;;;;;;7.53;6.57;;;2.20;99.90;;;;;;5096104;28;20176;-75
2023/01/24 08:16:50;;;;;;;8.33;6.70;;;2.30;99.90;;;;;;5094863;28;20181;-74
2023/01/24 08:19:16;;;;;;;7.87;7.07;;;2.30;99.90;;;;;;5094843;28;20230;-74
2023/01/24 08:21:41;;;;;;;7.17;6.30;;;2.30;99.90;;;;;;5095897;28;20199;-74
2023/01/24 08:24:07;;;;;;;8.33;7.27;;;2.30;99.90;;;;;;5094934;28;20209;-74
2023/01/24 08:26:33;;;;;;;9.67;7.67;;;2.30;99.90;;;;;;5094571;28;20247;-74
2023/01/24 08:28:58;;;;;;;9.33;7.80;;;2.40;99.90;;;;;;5094746;28;20177;-74
2023/01/24 08:31:24;;;;;;;8.73;7.77;;;2.30;99.90;;;;;;5094956;28;20665;-74
2023/01/24 08:33:51;;;;;;;9.37;7.67;;;2.20;99.90;;;;;;5094503;28;20259;-74
2023/01/24 08:36:19;;;;;;;8.37;7.07;;;2.40;99.90;;;;;;5094767;28;20223;-74
2023/01/24 08:38:44;;;;;;;8.43;7.57;;;2.40;99.90;;;;;;5095594;28;20173;-74
2023/01/24 08:41:10;;;;;;;6.83;6.13;;;2.40;99.90;;;;;;5094395;28;20203;-74
2023/01/24 08:43:36;;;;;;;6.90;5.77;;;2.50;99.90;;;;;;5095532;28;20169;-74
2023/01/24 08:46:01;;;;;;;6.73;6.03;;;2.50;99.90;;;;;;5095453;28;20212;-74
2023/01/24 08:48:28;;;;;;;7.33;6.30;;;2.60;99.90;;;;;;5094387;28;20260;-74
2023/01/24 08:50:54;;;;;;;6.80;5.87;;;2.50;99.90;;;;;;5094537;28;20179;-74
2023/01/24 08:53:19;;;;;;;7.13;6.40;;;2.70;99.90;;;;;;5094533;28;20169;-74
2023/01/24 08:55:48;;;;;;;6.27;5.50;;;2.80;99.90;;;;;;5094012;28;20193;-74
2023/01/24 08:58:13;;;;;;;7.23;6.30;;;2.90;99.90;;;;;;5095567;28;20165;-74
2023/01/24 09:00:39;;;;;;;6.37;5.17;;;2.90;99.90;;;;;;5095539;28;20238;-74
2023/01/24 09:03:04;;;;;;;6.10;5.50;;;2.90;99.90;;;;;;5094244;28;20226;-74
2023/01/24 09:05:30;;;;;;;6.73;5.83;;;3.00;99.90;;;;;;5093804;28;20197;-74
2023/01/24 09:07:56;;;;;;;7.27;5.83;;;3.00;99.90;;;;;;5094976;28;20173;-74
2023/01/24 09:10:22;;;;;;;6.20;5.60;;;3.00;99.90;;;;;;5092837;28;20256;-74
2023/01/24 09:12:48;;;;;;;6.10;5.50;;;3.10;99.90;;;;;;5095235;28;20265;-74
2023/01/24 09:15:13;;;;;;;6.00;5.37;;;2.90;99.90;;;;;;5095240;28;20188;-74
2023/01/24 09:17:39;;;;;;;5.50;4.90;;;2.90;99.90;;;;;;5094576;28;20208;-74
2023/01/24 09:20:06;;;;;;;5.93;5.33;;;2.90;99.90;;;;;;5094765;28;20180;-74
2023/01/24 09:22:32;;;;;;;6.17;5.50;;;2.90;99.90;;;;;;5094784;28;20177;-75
2023/01/24 09:24:58;;;;;;;5.83;5.30;;;3.00;99.90;;;;;;5093523;28;20291;-75
2023/01/24 09:27:23;;;;;;;6.47;5.57;;;2.80;99.90;;;;;;5093507;28;20208;-75
2023/01/24 09:29:49;;;;;;;6.20;5.57;;;2.80;99.90;;;;;;5093516;28;20176;-75
2023/01/24 09:32:16;;;;;;;10.03;7.27;;;2.70;99.90;;;;;;5093386;28;20216;-75
2023/01/24 09:34:46;;;;;;;7.30;6.50;;;2.70;99.90;;;;;;5094273;28;20222;-75
2023/01/24 09:37:18;;;;;;;6.83;6.13;;;2.70;99.90;;;;;;5094584;28;20173;-75
2023/01/24 09:39:44;;;;;;;6.20;5.60;;;2.70;99.90;;;;;;5093302;28;20169;-75
2023/01/24 09:42:16;;;;;;;7.37;6.57;;;2.80;99.90;;;;;;5093530;28;20183;-75
2023/01/24 09:45:07;;;;;;;9.27;6.97;;;2.70;99.90;;;;;;5094587;28;20200;-75
2023/01/24 09:47:51;;;;;;;6.67;5.93;;;2.70;99.90;;;;;;5093019;28;20221;-75
2023/01/24 09:50:27;;;;;;;6.57;5.87;;;2.80;99.90;;;;;;5094635;28;20157;-75
2023/01/24 09:52:55;;;;;;;6.73;5.70;;;2.90;99.90;;;;;;5093960;28;20167;-75
2023/01/24 09:55:41;;;;;;;6.93;6.23;;;2.90;99.90;;;;;;5092863;28;20189;-75
2023/01/24 09:58:18;;;;;;;8.63;7.80;;;3.00;99.90;;;;;;5093264;28;20157;-75
2023/01/24 10:00:44;;;;;;;9.00;8.10;;;2.90;99.90;;;;;;5093004;28;20184;-75
2023/01/24 10:03:19;;;;;;;11.73;10.13;;;2.70;99.90;;;;;;5093632;28;20173;-75
2023/01/24 10:05:48;;;;;;;23.93;14.03;;;2.60;99.90;;;;;;5092696;28;20197;-75
2023/01/24 10:08:43;;;;;;;17.00;10.17;;;2.50;99.90;;;;;;5093067;28;20176;-75
2023/01/24 10:11:21;;;;;;;9.07;6.83;;;2.70;99.90;;;;;;5092835;28;20247;-75
2023/01/24 10:14:12;;;;;;;6.70;5.87;;;2.70;99.90;;;;;;5094107;28;20177;-75
2023/01/24 10:16:53;;;;;;;5.73;5.17;;;2.80;99.90;;;;;;5094168;28;20169;-75
2023/01/24 10:19:37;;;;;;;7.83;6.67;;;2.90;99.90;;;;;;5094102;28;20167;-75
2023/01/24 10:22:13;;;;;;;7.43;6.10;;;2.90;99.90;;;;;;5093668;28;20165;-75
2023/01/24 10:24:45;;;;;;;6.70;5.73;;;2.90;99.90;;;;;;5092736;28;20204;-75
2023/01/24 10:27:25;;;;;;;6.10;5.50;;;2.90;99.90;;;;;;5092538;28;20203;-75
2023/01/24 10:29:58;;;;;;;6.60;5.90;;;2.90;99.90;;;;;;5092463;28;20175;-75
2023/01/24 10:32:31;;;;;;;6.50;5.90;;;2.90;99.90;;;;;;5092524;28;20165;-75
2023/01/24 10:35:12;;;;;;;7.20;6.40;;;3.00;99.90;;;;;;5093857;28;20197;-75
2023/01/24 10:37:42;;;;;;;5.47;4.90;;;3.20;99.90;;;;;;5092431;28;20173;-75
2023/01/24 10:40:16;;;;;;;5.70;5.10;;;3.20;99.90;;;;;;5092362;28;20177;-75
2023/01/24 10:42:42;;;;;;;4.93;4.43;;;3.10;99.90;;;;;;5092351;28;20210;-75
2023/01/24 10:45:32;;;;;;;5.00;4.60;;;3.10;99.90;;;;;;5093592;28;20196;-76
2023/01/24 10:48:06;;;;;;;6.97;5.47;;;3.20;99.90;;;;;;5053989;28;20184;-76
2023/01/24 10:50:42;;;;;;;6.30;5.70;;;3.30;99.90;;;;;;5093804;28;20210;-76
2023/01/24 10:53:13;;;;;;;5.43;4.93;;;3.30;99.90;;;;;;5093023;28;20168;-76
2023/01/24 10:55:39;;;;;;;5.70;5.10;;;3.10;99.90;;;;;;5093403;28;20275;-76
2023/01/24 10:58:35;;;;;;;5.23;4.40;;;3.10;99.90;;;;;;5092162;28;20181;-76
2023/01/24 11:01:19;;;;;;;4.63;4.23;;;3.30;99.90;;;;;;5093428;28;20165;-76
2023/01/24 11:03:47;;;;;;;4.83;4.37;;;3.50;99.90;;;;;;5093670;28;20157;-76
2023/01/24 11:06:39;;;;;;;4.80;4.20;;;3.50;99.90;;;;;;5093415;28;20300;-76
2023/01/24 11:09:14;;;;;;;4.47;3.97;;;3.20;99.90;;;;;;5089383;28;20181;-76
2023/01/24 11:11:46;;;;;;;4.77;4.37;;;3.00;99.90;;;;;;5092045;28;20169;-76
2023/01/24 11:14:17;;;;;;;4.97;4.50;;;3.00;99.90;;;;;;5091985;28;20165;-76
2023/01/24 11:16:46;;;;;;;5.23;4.73;;;3.10;99.90;;;;;;5093266;28;20176;-76
2023/01/24 11:19:39;;;;;;;5.30;4.80;;;3.40;99.90;;;;;;5092808;28;20177;-76
2023/01/24 11:22:26;;;;;;;5.73;5.17;;;3.70;99.90;;;;;;5089030;28;20196;-76
2023/01/24 11:24:57;;;;;;;5.10;4.60;;;3.80;99.90;;;;;;5091871;28;20211;-76
2023/01/24 11:27:23;;;;;;;4.90;4.40;;;3.60;99.90;;;;;;5093145;28;20185;-76
2023/01/24 11:30:19;;;;;;;5.40;4.90;;;3.50;99.90;;;;;;5093154;28;20670;-76
2023/01/24 11:33:00;;;;;;;5.43;4.93;;;3.20;99.90;;;;;;5092528;28;20170;-76
2023/01/24 11:35:33;;;;;;;5.60;5.00;;;3.10;99.90;;;;;;5096810;28;20207;-76
2023/01/24 11:38:28;;;;;;;5.30;4.80;;;3.20;99.90;;;;;;5096555;28;20193;-76
2023/01/24 11:41:24;;;;;;;6.23;5.33;;;3.20;99.90;;;;;;5096856;28;20179;-76
2023/01/24 11:44:27;;;;;;;5.67;5.10;;;3.30;99.90;;;;;;5096735;28;20156;-76
2023/01/24 11:47:04;;;;;;;5.27;4.60;;;3.40;99.90;;;;;;5096649;28;20208;-76
2023/01/24 11:49:37;;;;;;;5.23;4.70;;;3.40;99.90;;;;;;5095415;28;20275;-76
2023/01/24 11:52:30;;;;;;;5.60;5.00;;;3.50;99.90;;;;;;5095515;28;20161;-76
2023/01/24 11:55:20;;;;;;;5.90;5.30;;;3.50;99.90;;;;;;5095254;28;20200;-76
2023/01/24 11:58:07;;;;;;;5.50;5.00;;;3.50;99.90;;;;;;5096766;28;20169;-76
2023/01/24 12:00:36;;;;;;;5.80;5.30;;;3.40;99.90;;;;;;5095232;28;20219;-76
2023/01/24 12:03:42;;;;;;;5.57;5.07;;;3.30;99.90;;;;;;5095399;28;20181;-76
2023/01/24 12:06:18;;;;;;;6.03;5.43;;;3.20;99.90;;;;;;5095538;28;20216;-76
2023/01/24 12:09:09;;;;;;;6.83;6.10;;;3.10;99.90;;;;;;5097117;28;20173;-76
2023/01/24 12:11:47;;;;;;;9.30;7.13;;;3.10;99.90;;;;;;5096554;28;20252;-76
2023/01/24 12:14:39;;;;;;;8.07;7.00;;;3.00;99.90;;;;;;5095832;28;20199;-76
2023/01/24 12:17:27;;;;;;;8.10;6.50;;;3.10;99.90;;;;;;5096220;28;20166;-76
2023/01/24 12:20:17;;;;;;;6.47;5.87;;;3.30;99.90;;;;;;5094985;28;20184;-76
2023/01/24 12:22:43;;;;;;;5.90;5.40;;;3.30;99.90;;;;;;5095763;28;20176;-76
2023/01/24 12:25:30;;;;;;;7.43;6.67;;;3.00;99.90;;;;;;5095821;28;20212;-76
2023/01/24 12:27:58;;;;;;;7.47;6.77;;;3.20;99.90;;;;;;5095833;28;20200;-76
2023/01/24 12:30:26;;;;;;;6.40;5.80;;;3.20;99.90;;;;;;5094613;28;20258;-76
2023/01/24 12:33:17;;;;;;;6.03;5.50;;;3.30;99.90;;;;;;5094907;28;20183;-76
2023/01/24 12:35:49;;;;;;;5.67;5.17;;;3.40;99.90;;;;;;5094778;28;20292;-76
2023/01/24 12:38:22;;;;;;;6.20;5.70;;;3.40;99.90;;;;;;5095691;28;20197;-76
2023/01/24 12:41:11;;;;;;;6.67;5.97;;;3.40;99.90;;;;;;5094446;28;20550;-76
2023/01/24 12:44:03;;;;;;;6.77;6.00;;;3.20;99.90;;;;;;5094918;28;20169;-76
2023/01/24 12:46:38;;;;;;;6.70;6.03;;;3.40;99.90;;;;;;5095219;28;20217;-76
2023/01/24 12:49:46;;;;;;;7.67;6.87;;;3.50;99.90;;;;;;5094309;28;20195;-76
2023/01/24 12:52:19;;;;;;;7.20;6.47;;;3.20;99.90;;;;;;5093470;28;20284;-76
2023/01/24 12:54:51;;;;;;;7.10;6.40;;;3.20;99.90;;;;;;5094084;28;20197;-76
2023/01/24 12:57:34;;;;;;;7.20;6.50;;;3.30;99.90;;;;;;5094445;28;20623;-76
2023/01/24 13:00:00;;;;;;;7.53;6.73;;;3.30;99.90;;;;;;5094202;28;20200;-76
2023/01/24 13:02:32;;;;;;;6.70;6.00;;;3.40;99.90;;;;;;5095118;28;20177;-76
2023/01/24 13:05:18;;;;;;;6.23;5.30;;;3.20;99.90;;;;;;5093928;28;20209;-76
2023/01/24 13:08:17;;;;;;;5.83;5.33;;;3.10;99.90;;;;;;5053509;28;20247;-76
2023/01/24 13:10:50;;;;;;;5.70;5.20;;;3.10;99.90;;;;;;5095202;28;20161;-76
2023/01/24 13:13:32;;;;;;;6.93;6.23;;;3.20;99.90;;;;;;5093873;28;20636;-76
2023/01/24 13:16:28;;;;;;;7.23;6.43;;;3.00;99.90;;;;;;5093749;28;20218;-76
2023/01/24 13:19:15;;;;;;;7.77;6.30;;;3.00;99.90;;;;;;5093755;28;20161;-76
2023/01/24 13:21:44;;;;;;;7.73;5.63;;;3.20;99.90;;;;;;5094480;28;20172;-76
2023/01/24 13:24:10;;;;;;;8.07;6.40;;;3.20;99.90;;;;;;5094835;28;20181;-76
2023/01/24 13:26:54;;;;;;;6.60;5.90;;;3.20;99.90;;;;;;5094937;28;20208;-76
2023/01/24 13:29:35;;;;;;;7.20;6.33;;;3.40;99.90;;;;;;5094116;28;20170;-76
2023/01/24 13:32:13;;;;;;;5.53;5.00;;;3.40;99.90;;;;;;5093464;28;20176;-76
2023/01/24 13:34:47;;;;;;;6.00;5.50;;;3.40;99.90;;;;;;5093344;28;20334;-76
2023/01/24 13:37:28;;;;;;;6.20;5.60;;;3.40;99.90;;;;;;5094223;28;20195;-76
2023/01/24 13:40:30;;;;;;;6.93;5.80;;;3.40;99.90;;;;;;5093321;28;20185;-76
2023/01/24 13:42:57;;;;;;;6.43;5.83;;;3.40;99.90;;;;;;5062380;28;20192;-76
2023/01/24 13:45:22;;;;;;;7.13;6.20;;;3.30;99.90;;;;;;5093407;28;20201;-76
2023/01/24 13:47:49;;;;;;;7.53;6.67;;;3.30;99.90;;;;;;5094188;28;20216;-76
2023/01/24 13:50:24;;;;;;;6.60;5.80;;;3.40;99.90;;;;;;5093389;28;20647;-76
2023/01/24 13:52:51;;;;;;;8.13;7.33;;;3.40;99.90;;;;;;5093100;28;20180;-76
2023/01/24 13:55:22;;;;;;;7.50;6.37;;;3.50;99.90;;;;;;5092764;28;20200;-76
2023/01/24 13:58:06;;;;;;;7.20;5.80;;;3.50;99.90;;;;;;5093285;28;20208;-76
2023/01/24 14:00:33;;;;;;;5.30;4.80;;;3.50;99.90;;;;;;5093022;28;20185;-76
2023/01/24 14:03:19;;;;;;;5.80;5.30;;;3.60;99.90;;;;;;5092887;28;20207;-76
2023/01/24 14:05:51;;;;;;;5.83;5.33;;;3.70;99.90;;;;;;5093286;28;20267;-76
2023/01/24 14:08:34;;;;;;;5.43;4.87;;;3.50;99.90;;;;;;5093174;28;20173;-76
2023/01/24 14:11:05;;;;;;;5.50;5.00;;;3.60;99.90;;;;;;5094031;28;20157;-76
2023/01/24 14:13:55;;;;;;;5.70;5.10;;;3.60;99.90;;;;;;5092702;28;20169;-76
2023/01/24 14:16:27;;;;;;;6.37;5.70;;;3.60;99.90;;;;;;5092687;28;20198;-76
2023/01/24 14:19:16;;;;;;;5.37;4.87;;;3.60;99.90;;;;;;5093505;28;20177;-76
2023/01/24 14:22:10;;;;;;;5.57;5.07;;;3.60;99.90;;;;;;5093766;28;20226;-76
2023/01/24 14:24:37;;;;;;;6.10;5.43;;;3.60;99.90;;;;;;5093635;28;20196;-76
2023/01/24 14:27:22;;;;;;;5.40;4.90;;;3.50;99.90;;;;;;5093967;28;20196;-76
2023/01/24 14:29:50;;;;;;;8.53;7.67;;;3.50;99.90;;;;;;5093660;28;20173;-76
2023/01/24 14:32:35;;;;;;;9.37;8.20;;;3.40;99.90;;;;;;5093734;28;20172;-76
2023/01/24 14:35:19;;;;;;;8.80;7.13;;;3.20;99.90;;;;;;5093659;28;20188;-76
2023/01/24 14:37:49;;;;;;;10.37;9.20;;;3.20;99.90;;;;;;5093058;28;20204;-76
2023/01/24 14:40:26;;;;;;;11.17;10.07;;;3.20;99.90;;;;;;5092653;28;20215;-76
2023/01/24 14:42:58;;;;;;;11.93;10.73;;;3.10;99.90;;;;;;5093873;28;20179;-76
2023/01/24 14:45:27;;;;;;;9.03;7.87;;;2.90;99.90;;;;;;5092411;28;20196;-78
2023/01/24 14:48:47;;;;;;;9.17;8.00;;;2.90;99.90;;;;;;5092893;28;20212;-75
2023/01/24 14:51:21;;;;;;;7.80;7.10;;;3.00;99.90;;;;;;5092414;28;20248;-76
2023/01/24 14:53:50;;;;;;;7.40;6.70;;;2.90;99.90;;;;;;5092569;28;20161;-76
2023/01/24 14:56:18;;;;;;;14.77;12.97;;;3.00;99.90;;;;;;5092348;28;20576;-78
2023/01/24 15:02:01;;;;;;;75.57;49.80;;;3.20;99.90;;;;;;5093884;28;20203;-77
2023/01/24 15:04:30;;;;;;;116.17;72.83;;;3.20;99.90;;;;;;5092001;28;20173;-77
2023/01/24 15:07:45;;;;;;;127.07;84.57;;;3.10;99.90;;;;;;5092339;28;20269;-77
2023/01/24 15:10:13;;;;;;;98.87;67.73;;;3.10;99.90;;;;;;5097630;28;20185;-77
2023/01/24 15:12:39;;;;;;;89.40;62.20;;;2.90;99.90;;;;;;5079184;28;20177;-77
2023/01/24 15:18:53;;;;;;;21.63;17.97;;;3.00;99.90;;;;;;5098071;28;20160;-77
2023/01/24 15:21:29;;;;;;;33.77;27.47;;;2.80;99.90;;;;;;5097514;28;20154;-77
2023/01/24 15:23:57;;;;;;;35.33;28.50;;;2.90;99.90;;;;;;5097213;28;20165;-77
2023/01/24 15:26:30;;;;;;;28.43;23.23;;;3.10;99.90;;;;;;5095873;28;20213;-77
2023/01/24 15:28:56;;;;;;;32.40;26.40;;;3.20;99.90;;;;;;5095777;28;20187;-77
2023/01/24 15:31:27;;;;;;;34.67;30.60;;;3.10;99.90;;;;;;5096574;28;20169;-77
2023/01/24 15:33:58;;;;;;;48.27;40.27;;;3.00;99.90;;;;;;5095865;28;20540;-77
2023/01/24 15:36:31;;;;;;;24.67;22.03;;;2.90;99.90;;;;;;5095914;28;20201;-77
2023/01/24 15:38:59;;;;;;;13.83;12.33;;;2.90;99.90;;;;;;5096040;28;20191;-77
2023/01/24 15:43:45;;;;;;;17.03;14.47;;;3.00;99.90;;;;;;5095912;28;20180;-77
2023/01/24 15:44:12;;;;;;;9.10;8.20;;;3.00;99.90;;;;;;5096596;28;20184;-77
2023/01/24 15:49:30;;;;;;;9.00;8.10;;;3.10;99.90;;;;;;5097037;28;20160;-77
2023/01/24 15:52:08;;;;;;;7.57;6.87;;;3.10;99.90;;;;;;5095419;28;20172;-77
2023/01/24 15:54:36;;;;;;;10.07;8.87;;;3.10;99.90;;;;;;5095340;28;20185;-77
2023/01/24 15:57:16;;;;;;;8.83;8.03;;;3.10;99.90;;;;;;5095372;28;20176;-77
2023/01/24 15:59:45;;;;;;;7.70;7.00;;;3.00;99.90;;;;;;5096164;28;20176;-77
2023/01/24 16:02:13;;;;;;;7.90;6.87;;;2.80;99.90;;;;;;5097195;28;20230;-77
2023/01/24 16:04:39;;;;;;;10.23;8.63;;;2.50;99.90;;;;;;5095125;28;20206;-77
2023/01/24 16:07:05;;;;;;;10.37;8.67;;;2.50;99.90;;;;;;5096487;28;20702;-77
2023/01/24 16:09:30;;;;;;;7.17;6.30;;;2.60;99.90;;;;;;5095590;28;20223;-76
2023/01/24 16:11:57;;;;;;;8.60;6.57;;;2.60;99.90;;;;;;5096106;28;20172;-77
2023/01/24 16:14:24;;;;;;;6.57;5.87;;;2.60;99.90;;;;;;5095230;28;20184;-77
2023/01/24 16:16:53;;;;;;;7.63;6.83;;;2.70;99.90;;;;;;5096282;28;20184;-77
2023/01/24 16:19:26;;;;;;;7.10;6.40;;;2.70;99.90;;;;;;5095870;28;20169;-77
2023/01/24 16:21:52;;;;;;;11.37;10.23;;;2.70;99.90;;;;;;5094966;28;20165;-76
2023/01/24 16:24:17;;;;;;;14.97;11.67;;;2.60;99.90;;;;;;5094794;28;20180;-77
2023/01/24 16:27:13;;;;;;;11.30;9.07;;;2.50;99.90;;;;;;5095181;28;20200;-77
2023/01/24 16:29:39;;;;;;;17.53;14.63;;;2.50;99.90;;;;;;5096989;28;20191;-77
2023/01/24 16:32:22;;;;;;;11.60;10.03;;;2.40;99.90;;;;;;5094605;28;20169;-77
2023/01/24 16:34:48;;;;;;;9.87;8.87;;;2.30;99.90;;;;;;5095082;28;20197;-77
2023/01/24 16:37:14;;;;;;;17.00;13.97;;;2.20;99.90;;;;;;5094568;28;20169;-77
2023/01/24 16:39:40;;;;;;;13.67;12.30;;;2.30;99.90;;;;;;5094801;28;20188;-76
2023/01/24 16:42:12;;;;;;;9.73;8.27;;;2.30;99.90;;;;;;5095106;28;20177;-77
2023/01/24 16:44:37;;;;;;;8.77;7.87;;;2.30;99.90;;;;;;5094458;28;20207;-76
2023/01/24 16:47:03;;;;;;;8.83;7.93;;;2.30;99.90;;;;;;5094436;28;20205;-76
2023/01/24 16:49:29;;;;;;;8.47;7.57;;;2.30;99.90;;;;;;5094478;28;20169;-77
2023/01/24 16:51:55;;;;;;;8.33;7.03;;;2.40;99.90;;;;;;5095770;28;20169;-77
2023/01/24 16:54:20;;;;;;;7.97;7.20;;;2.50;99.90;;;;;;5094245;28;20173;-77
2023/01/24 16:56:46;;;;;;;8.50;7.63;;;2.50;99.90;;;;;;5094263;28;20165;-77
2023/01/24 16:59:12;;;;;;;8.37;7.40;;;2.50;99.90;;;;;;5095005;28;20173;-77
2023/01/24 17:01:39;;;;;;;8.93;7.37;;;2.50;99.90;;;;;;5094025;28;20165;-77
2023/01/24 17:04:05;;;;;;;8.40;7.60;;;2.50;99.90;;;;;;5094024;28;20188;-77
2023/01/24 17:06:31;;;;;;;8.90;6.87;;;2.50;99.90;;;;;;5093828;28;20208;-77
2023/01/24 17:08:56;;;;;;;8.03;7.23;;;2.50;99.90;;;;;;5095212;28;20215;-77
2023/01/24 17:11:22;;;;;;;8.93;7.47;;;2.60;99.90;;;;;;5094218;28;20260;-77
2023/01/24 17:13:49;;;;;;;7.90;7.10;;;2.50;99.90;;;;;;5093947;28;20172;-77
2023/01/24 17:16:15;;;;;;;9.23;8.33;;;2.50;99.90;;;;;;5093761;28;20196;-77
2023/01/24 17:18:41;;;;;;;8.07;7.27;;;2.50;99.90;;;;;;5094996;28;20169;-76
2023/01/24 17:21:11;;;;;;;8.10;7.10;;;2.50;99.90;;;;;;5094868;28;20233;-76
2023/01/24 17:23:38;;;;;;;8.73;7.83;;;2.50;99.90;;;;;;5094939;28;20162;-76
2023/01/24 17:26:10;;;;;;;9.07;8.17;;;2.50;99.90;;;;;;5093665;28;20192;-77
2023/01/24 17:28:36;;;;;;;9.67;8.10;;;2.50;99.90;;;;;;5094208;28;20169;-77
2023/01/24 17:31:17;;;;;;;9.33;7.77;;;2.40;99.90;;;;;;5093082;28;20192;-77
2023/01/24 17:33:43;;;;;;;10.93;9.13;;;2.50;99.90;;;;;;5094894;28;20169;-77
2023/01/24 17:36:11;;;;;;;14.33;11.20;;;2.50;99.90;;;;;;5092753;28;20257;-77
2023/01/24 17:38:37;;;;;;;14.63;10.87;;;2.50;99.90;;;;;;5091298;28;20223;-77
2023/01/24 17:41:02;;;;;;;22.10;15.20;;;2.50;99.90;;;;;;5092663;28;20192;-77
2023/01/24 17:43:29;;;;;;;13.97;12.40;;;2.40;99.90;;;;;;5092118;28;20165;-77
2023/01/24 17:45:58;;;;;;;11.63;10.00;;;2.50;99.90;;;;;;5091957;28;20679;-77
2023/01/24 17:48:24;;;;;;;11.57;9.93;;;2.50;99.90;;;;;;5093448;28;20222;-77
2023/01/24 17:50:50;;;;;;;10.90;9.47;;;2.40;99.90;;;;;;5092105;28;20674;-77
2023/01/24 17:53:16;;;;;;;10.87;9.23;;;2.50;99.90;;;;;;5093022;28;20177;-77
2023/01/24 17:55:42;;;;;;;8.77;7.80;;;2.50;99.90;;;;;;5093001;28;20204;-77
2023/01/24 17:58:09;;;;;;;9.17;8.27;;;2.50;99.90;;;;;;5094188;28;20168;-77
2023/01/24 18:00:34;;;;;;;9.67;8.43;;;2.50;99.90;;;;;;5092935;28;20180;-77
2023/01/24 18:03:00;;;;;;;9.37;8.37;;;2.60;99.90;;;;;;5093297;28;20225;-77
2023/01/24 18:05:26;;;;;;;10.00;8.97;;;2.60;99.90;;;;;;5092866;28;20691;-77
2023/01/24 18:07:51;;;;;;;11.13;8.40;;;2.60;99.90;;;;;;5093021;28;20211;-77
2023/01/24 18:10:17;;;;;;;9.03;7.90;;;2.70;99.90;;;;;;5094589;28;20223;-77
2023/01/24 18:12:43;;;;;;;9.17;8.00;;;2.70;99.90;;;;;;5092732;28;20234;-77
2023/01/24 18:15:09;;;;;;;8.83;7.47;;;2.60;99.90;;;;;;5092675;28;20226;-77
2023/01/24 18:17:36;;;;;;;9.53;8.13;;;2.70;99.90;;;;;;5093878;28;20199;-77
2023/01/24 18:20:02;;;;;;;9.70;8.00;;;2.60;99.90;;;;;;5094081;28;20180;-77
2023/01/24 18:22:28;;;;;;;8.63;7.53;;;2.60;99.90;;;;;;5092549;28;20587;-77
2023/01/24 18:24:53;;;;;;;9.97;8.10;;;2.60;99.90;;;;;;5092480;28;20196;-77
2023/01/24 18:27:19;;;;;;;8.60;7.70;;;2.70;99.90;;;;;;5093592;28;20543;-77
2023/01/24 18:29:45;;;;;;;8.70;7.80;;;2.70;99.90;;;;;;5092615;28;20191;-77
2023/01/24 18:32:11;;;;;;;8.90;8.00;;;2.70;99.90;;;;;;5092379;28;20636;-77
2023/01/24 18:34:37;;;;;;;8.73;7.50;;;2.60;99.90;;;;;;5093556;28;20283;-77
2023/01/24 18:37:02;;;;;;;10.03;8.37;;;2.60;99.90;;;;;;5093194;28;20279;-77
2023/01/24 18:39:28;;;;;;;8.93;7.47;;;2.60;99.90;;;;;;5092337;28;20177;-77
2023/01/24 18:41:54;;;;;;;11.13;8.20;;;2.50;99.90;;;;;;5092555;28;20185;-77
2023/01/24 18:44:19;;;;;;;9.60;8.27;;;2.60;99.90;;;;;;5092301;28;20180;-77
2023/01/24 18:46:45;;;;;;;8.43;7.60;;;2.50;99.90;;;;;;5092134;28;20217;-77
2023/01/24 18:49:10;;;;;;;9.13;7.60;;;2.50;99.90;;;;;;5093471;28;20177;-77
2023/01/24 18:51:37;;;;;;;10.23;8.90;;;2.60;99.90;;;;;;5092640;28;20277;-77
2023/01/24 18:54:06;;;;;;;9.57;8.57;;;2.70;99.90;;;;;;5092644;28;20177;-77
2023/01/24 18:56:31;;;;;;;10.37;8.37;;;2.70;99.90;;;;;;5092239;28;20208;-77
2023/01/24 18:58:57;;;;;;;8.87;7.83;;;2.70;99.90;;;;;;5092529;28;20181;-77
2023/01/24 19:01:24;;;;;;;9.27;7.97;;;2.70;99.90;;;;;;5094052;28;20185;-77
2023/01/24 19:03:51;;;;;;;13.03;10.60;;;2.60;99.90;;;;;;5093699;28;20184;-77
2023/01/24 19:06:26;;;;;;;28.33;15.43;;;2.60;99.90;;;;;;5093531;28;20205;-77
2023/01/24 19:08:53;;;;;;;12.87;8.93;;;2.60;99.90;;;;;;5093120;28;20176;-77
2023/01/24 19:11:27;;;;;;;12.03;9.13;;;2.60;99.90;;;;;;5092025;28;20173;-77
2023/01/24 19:13:54;;;;;;;10.83;8.37;;;2.60;99.90;;;;;;5092090;28;20180;-77
2023/01/24 19:16:22;;;;;;;9.60;8.60;;;2.70;99.90;;;;;;5091970;28;20663;-77
2023/01/24 19:18:50;;;;;;;9.13;7.97;;;2.50;99.90;;;;;;5093247;28;20173;-77
2023/01/24 19:21:16;;;;;;;10.13;8.70;;;2.50;99.90;;;;;;5091961;28;20185;-77
2023/01/24 19:23:43;;;;;;;10.27;8.90;;;2.50;99.90;;;;;;5093534;28;20255;-77
2023/01/24 19:26:14;;;;;;;9.37;8.40;;;2.50;99.90;;;;;;5091784;28;20249;-77
2023/01/24 19:28:40;;;;;;;8.67;7.77;;;2.50;99.90;;;;;;5093408;28;20238;-77
2023/01/24 19:31:05;;;;;;;8.83;7.93;;;2.50;99.90;;;;;;5091901;28;20633;-77
2023/01/24 19:33:58;;;;;;;8.80;7.90;;;2.40;99.90;;;;;;5091921;28;20185;-77
2023/01/24 19:36:24;;;;;;;9.47;8.47;;;2.30;99.90;;;;;;5093168;28;20208;-77
2023/01/24 19:38:55;;;;;;;8.53;7.73;;;2.40;99.90;;;;;;5092703;28;20180;-77
2023/01/24 19:41:22;;;;;;;8.17;7.37;;;2.40;99.90;;;;;;5093283;28;20180;-77
2023/01/24 19:43:48;;;;;;;8.23;7.07;;;2.40;99.90;;;;;;5092323;28;20180;-77
2023/01/24 19:46:13;;;;;;;8.53;7.43;;;2.50;99.90;;;;;;5091470;28;20709;-77
2023/01/24 19:48:39;;;;;;;8.77;7.83;;;2.40;99.90;;;;;;5093234;28;20246;-77
2023/01/24 19:51:08;;;;;;;9.33;8.07;;;2.40;99.90;;;;;;5091772;28;20188;-77
2023/01/24 19:56:55;;;;;;;9.70;8.70;;;2.40;99.90;;;;;;5096661;28;20177;-77
2023/01/24 19:59:22;;;;;;;8.40;7.53;;;2.40;99.90;;;;;;5095535;28;20177;-77
2023/01/24 20:01:47;;;;;;;9.57;8.20;;;2.40;99.90;;;;;;5096510;28;20180;-77
2023/01/24 20:04:13;;;;;;;9.43;8.27;;;2.50;99.90;;;;;;5096600;28;20181;-77
2023/01/24 20:06:39;;;;;;;8.83;7.93;;;2.50;99.90;;;;;;5095099;28;20200;-77
2023/01/24 20:09:05;;;;;;;8.80;7.93;;;2.50;99.90;;;;;;5095144;28;20173;-77
2023/01/24 20:12:26;;;;;;;11.37;9.67;;;2.40;99.90;;;;;;5096563;28;20177;-77
2023/01/24 20:14:51;;;;;;;8.50;7.60;;;2.40;99.90;;;;;;5095886;28;20280;-77
2023/01/24 20:17:17;;;;;;;10.37;8.77;;;2.40;99.90;;;;;;5094819;28;20207;-77
2023/01/24 20:19:42;;;;;;;12.07;9.43;;;2.40;99.90;;;;;;5094892;28;20724;-77
2023/01/24 20:22:08;;;;;;;66.03;46.10;;;2.40;99.90;;;;;;5094789;28;20177;-77
2023/01/24 20:24:34;;;;;;;18.60;14.13;;;2.40;99.90;;;;;;5095051;28;20203;-77